Time;durP1;ratioP1;P1;durP2;ratioP2;P2;SDS_P1;SDS_P2;PMS_P1;PMS_P2;Temp;Humidity;BMP_temperature;BMP_pressure;BME280_temperature;BME280_humidity;BME280_pressure;Samples;Min_cycle;Max_cycle;Signal;HPM_P1;HPM_P2
2023/03/14 00:02:27;;;;;;;21.63;10.48;;;;;;;;;;12819787;19;20374;-67
2023/03/14 00:07:39;;;;;;;20.73;9.10;;;;;;;;;;12819171;19;20491;-67
2023/03/14 00:12:24;;;;;;;16.92;6.50;;;;;;;;;;12816854;19;20384;-67
2023/03/14 00:17:26;;;;;;;43.95;12.77;;;;;;;;;;12818062;19;20365;-68
2023/03/14 00:22:10;;;;;;;36.75;10.98;;;;;;;;;;12819712;19;20323;-67
2023/03/14 00:26:45;;;;;;;12.68;5.43;;;;;;;;;;12822070;19;20489;-67
2023/03/14 00:31:50;;;;;;;18.23;6.18;;;;;;;;;;12817747;19;20479;-67
2023/03/14 00:36:29;;;;;;;17.48;6.95;;;;;;;;;;12817442;19;20362;-67
2023/03/14 00:52:48;;;;;;;8.38;4.07;;;;;;;;;;12815710;19;20039;-68
2023/03/14 01:04:11;;;;;;;14.88;5.72;;;;;;;;;;12716037;19;2005395;-67
2023/03/14 01:09:08;;;;;;;14.90;4.97;;;;;;;;;;12814743;19;20307;-67
2023/03/14 01:14:20;;;;;;;14.45;4.57;;;;;;;;;;12814974;19;20439;-67
2023/03/14 01:19:45;;;;;;;16.55;5.63;;;;;;;;;;12814091;19;20018;-67
2023/03/14 01:24:38;;;;;;;7.68;3.03;;;;;;;;;;12812731;19;20506;-67
2023/03/14 01:29:49;;;;;;;7.38;3.42;;;;;;;;;;12814778;19;20311;-67
2023/03/14 01:40:24;;;;;;;24.10;6.38;;;;;;;;;;12810426;19;20342;-67
2023/03/14 01:46:10;;;;;;;6.43;2.90;;;;;;;;;;12810665;19;20517;-66
2023/03/14 01:51:39;;;;;;;14.27;4.57;;;;;;;;;;12812826;19;20062;-67
2023/03/14 01:56:46;;;;;;;8.02;2.92;;;;;;;;;;12819386;19;20398;-67
2023/03/14 02:01:44;;;;;;;14.68;5.95;;;;;;;;;;12820919;19;20430;-67
2023/03/14 02:07:08;;;;;;;16.90;6.57;;;;;;;;;;12820925;19;20485;-66
2023/03/14 02:12:39;;;;;;;12.07;3.80;;;;;;;;;;12810412;19;20434;-67
2023/03/14 02:17:10;;;;;;;10.23;4.50;;;;;;;;;;12812762;19;20364;-67
2023/03/14 02:22:13;;;;;;;20.73;6.13;;;;;;;;;;12816542;19;20325;-67
2023/03/14 02:27:21;;;;;;;13.90;6.38;;;;;;;;;;12819728;19;20433;-67
2023/03/14 02:33:19;;;;;;;8.95;3.83;;;;;;;;;;12810763;19;20308;-67
2023/03/14 02:38:26;;;;;;;21.33;7.40;;;;;;;;;;12814266;19;20022;-67
2023/03/14 02:48:49;;;;;;;7.55;3.08;;;;;;;;;;12813507;19;20461;-67
2023/03/14 02:53:31;;;;;;;7.90;2.65;;;;;;;;;;12810402;19;20371;-67
2023/03/14 02:58:09;;;;;;;8.40;3.25;;;;;;;;;;12811086;19;20020;-67
2023/03/14 03:08:50;;;;;;;4.43;2.70;;;;;;;;;;12809430;19;20400;-67
2023/03/14 03:13:31;;;;;;;8.05;2.83;;;;;;;;;;12811390;19;20028;-67
2023/03/14 03:24:15;;;;;;;7.18;2.40;;;;;;;;;;12712717;19;2005084;-67
2023/03/14 03:29:09;;;;;;;5.88;3.25;;;;;;;;;;12819051;19;20430;-67
2023/03/14 03:33:31;;;;;;;6.95;3.08;;;;;;;;;;12822349;19;20426;-66
2023/03/14 03:43:06;;;;;;;6.30;2.55;;;;;;;;;;12819901;19;20849;-67
2023/03/14 03:52:48;;;;;;;6.47;3.25;;;;;;;;;;12818506;19;20503;-67
2023/03/14 03:58:16;;;;;;;7.35;3.72;;;;;;;;;;12823264;19;20502;-66
2023/03/14 04:04:13;;;;;;;9.82;3.70;;;;;;;;;;12819542;19;20436;-66
2023/03/14 04:09:13;;;;;;;6.88;3.25;;;;;;;;;;12720805;19;2005732;-67
2023/03/14 04:14:44;;;;;;;7.28;3.50;;;;;;;;;;12827101;19;20014;-67
2023/03/14 04:19:51;;;;;;;4.38;2.63;;;;;;;;;;12816341;19;20552;-67
2023/03/14 04:24:48;;;;;;;8.88;4.07;;;;;;;;;;12817515;19;20442;-67
2023/03/14 04:35:21;;;;;;;5.15;2.83;;;;;;;;;;12815630;19;20525;-67
2023/03/14 04:40:13;;;;;;;6.13;3.60;;;;;;;;;;12822750;19;20489;-67
2023/03/14 04:44:37;;;;;;;22.50;11.70;;;;;;;;;;12825843;19;20364;-67
2023/03/14 04:54:23;;;;;;;14.35;5.47;;;;;;;;;;12816640;19;20412;-67
2023/03/14 05:05:17;;;;;;;7.72;4.55;;;;;;;;;;12816438;19;20398;-67
2023/03/14 05:10:13;;;;;;;17.90;11.07;;;;;;;;;;12817856;19;20390;-67
2023/03/14 05:15:41;;;;;;;10.00;5.15;;;;;;;;;;12817691;19;20468;-66
2023/03/14 05:26:38;;;;;;;19.83;7.65;;;;;;;;;;12814656;19;20355;-67
2023/03/14 05:31:46;;;;;;;35.92;13.77;;;;;;;;;;12823027;19;20021;-66
2023/03/14 05:36:46;;;;;;;40.47;15.52;;;;;;;;;;12814800;19;20311;-67
2023/03/14 05:41:29;;;;;;;10.73;5.40;;;;;;;;;;12815233;19;20410;-67
2023/03/14 05:46:37;;;;;;;9.60;4.80;;;;;;;;;;12819155;19;20898;-68
2023/03/14 05:51:17;;;;;;;13.52;4.85;;;;;;;;;;12811808;19;20521;-66
2023/03/14 06:01:12;;;;;;;23.50;11.23;;;;;;;;;;12805739;19;21008;-68
2023/03/14 06:06:11;;;;;;;17.88;8.73;;;;;;;;;;12807365;19;20002;-67
2023/03/14 06:11:12;;;;;;;15.07;5.93;;;;;;;;;;12816182;19;20007;-68
2023/03/14 06:16:31;;;;;;;17.92;6.43;;;;;;;;;;12814027;19;21130;-67
2023/03/14 06:21:45;;;;;;;23.35;7.78;;;;;;;;;;12814449;19;20011;-67
2023/03/14 06:27:19;;;;;;;15.57;5.85;;;;;;;;;;12812743;19;20465;-67
2023/03/14 06:32:37;;;;;;;16.48;6.10;;;;;;;;;;12814143;19;21308;-67
2023/03/14 06:38:04;;;;;;;16.25;5.72;;;;;;;;;;12811176;19;20003;-68
2023/03/14 06:43:23;;;;;;;18.80;7.55;;;;;;;;;;12812549;19;20422;-67
2023/03/14 06:48:48;;;;;;;14.32;5.75;;;;;;;;;;12812223;19;20525;-67
2023/03/14 06:54:31;;;;;;;10.80;6.05;;;;;;;;;;12798599;19;20291;-67
2023/03/14 07:00:11;;;;;;;11.65;5.47;;;;;;;;;;12800752;19;20485;-67
2023/03/14 07:05:40;;;;;;;11.70;4.75;;;;;;;;;;12808176;19;20003;-67
2023/03/14 07:11:03;;;;;;;13.55;5.20;;;;;;;;;;12808853;19;20334;-67
2023/03/14 07:16:32;;;;;;;13.35;5.60;;;;;;;;;;12807816;19;20003;-67
2023/03/14 07:21:57;;;;;;;13.00;5.32;;;;;;;;;;12807407;19;20314;-67
2023/03/14 07:27:18;;;;;;;15.77;8.13;;;;;;;;;;12806705;19;20042;-68
2023/03/14 07:32:35;;;;;;;19.05;5.85;;;;;;;;;;12810132;19;20010;-67
2023/03/14 07:38:06;;;;;;;18.15;6.13;;;;;;;;;;12812115;19;20303;-67
2023/03/14 07:49:13;;;;;;;11.35;3.78;;;;;;;;;;12804823;19;20018;-67
2023/03/14 07:54:39;;;;;;;12.00;3.78;;;;;;;;;;12809255;19;20418;-68
2023/03/14 08:06:13;;;;;;;11.68;4.25;;;;;;;;;;12826532;19;20507;-68
2023/03/14 08:10:50;;;;;;;11.95;5.57;;;;;;;;;;12822841;19;20494;-67
2023/03/14 08:22:20;;;;;;;13.65;4.38;;;;;;;;;;12716577;19;2005475;-68
2023/03/14 08:27:20;;;;;;;10.90;4.22;;;;;;;;;;12815329;19;20303;-68
2023/03/14 08:31:45;;;;;;;11.30;4.68;;;;;;;;;;12822009;19;20429;-68
2023/03/14 08:36:28;;;;;;;13.32;4.28;;;;;;;;;;12826298;19;20390;-68
2023/03/14 08:41:39;;;;;;;6.05;3.42;;;;;;;;;;12822218;19;20295;-68
2023/03/14 08:46:16;;;;;;;6.80;2.80;;;;;;;;;;12823907;19;20473;-68
2023/03/14 08:57:18;;;;;;;9.68;3.00;;;;;;;;;;12813415;19;20002;-68
2023/03/14 09:02:12;;;;;;;7.40;2.70;;;;;;;;;;12817965;19;20426;-68
2023/03/14 09:07:28;;;;;;;5.75;2.72;;;;;;;;;;12818867;19;20434;-67
2023/03/14 09:12:23;;;;;;;7.40;2.88;;;;;;;;;;12814199;19;21475;-68
2023/03/14 09:17:09;;;;;;;9.15;3.13;;;;;;;;;;12820984;19;20303;-68
2023/03/14 09:21:46;;;;;;;10.40;2.90;;;;;;;;;;12820376;19;20288;-67
2023/03/14 09:32:08;;;;;;;3.88;2.10;;;;;;;;;;12818483;19;20658;-68
2023/03/14 09:36:28;;;;;;;5.10;2.90;;;;;;;;;;12819926;19;20414;-68
2023/03/14 09:41:35;;;;;;;6.45;2.30;;;;;;;;;;12822363;19;20019;-68
2023/03/14 09:51:43;;;;;;;9.40;2.30;;;;;;;;;;12818882;19;20074;-67
2023/03/14 10:03:50;;;;;;;7.55;3.15;;;;;;;;;;12720049;19;2004986;-68
2023/03/14 10:13:29;;;;;;;9.18;2.50;;;;;;;;;;12821392;19;20424;-68
2023/03/14 10:19:21;;;;;;;5.80;1.98;;;;;;;;;;12813165;19;20884;-68
2023/03/14 10:24:22;;;;;;;6.10;2.72;;;;;;;;;;12810815;19;20479;-68
2023/03/14 10:41:07;;;;;;;7.88;3.00;;;;;;;;;;12815678;19;20493;-68
2023/03/14 10:46:40;;;;;;;4.97;2.25;;;;;;;;;;12820724;19;20007;-68
2023/03/14 10:51:41;;;;;;;5.60;1.90;;;;;;;;;;12810399;19;20310;-67
2023/03/14 10:56:26;;;;;;;3.80;2.25;;;;;;;;;;12809106;19;20344;-68
2023/03/14 11:07:47;;;;;;;6.25;2.45;;;;;;;;;;12707435;19;2005824;-67
2023/03/14 11:13:15;;;;;;;6.00;2.93;;;;;;;;;;12808160;19;20323;-67
2023/03/14 11:30:30;;;;;;;7.85;2.80;;;;;;;;;;12818353;19;21053;-69
2023/03/14 11:35:37;;;;;;;6.28;3.17;;;;;;;;;;12816648;19;20318;-69
2023/03/14 11:41:08;;;;;;;5.15;3.03;;;;;;;;;;12707013;19;2005507;-69
2023/03/14 11:46:41;;;;;;;11.07;4.40;;;;;;;;;;12811671;19;20106;-69
2023/03/14 11:51:47;;;;;;;6.30;2.45;;;;;;;;;;12820953;19;20521;-69
2023/03/14 11:57:17;;;;;;;17.17;4.53;;;;;;;;;;12819281;19;20011;-70
2023/03/14 12:02:27;;;;;;;8.27;3.40;;;;;;;;;;12817728;19;20319;-69
2023/03/14 12:20:27;;;;;;;4.93;2.50;;;;;;;;;;12716145;19;2005145;-69
2023/03/14 12:32:09;;;;;;;2.22;1.77;;;;;;;;;;12716152;19;2004816;-70
2023/03/14 12:37:08;;;;;;;4.50;2.05;;;;;;;;;;12817686;19;20011;-68
2023/03/14 12:48:22;;;;;;;6.03;2.95;;;;;;;;;;12723093;19;2004993;-69
2023/03/14 12:53:13;;;;;;;7.85;2.72;;;;;;;;;;12825109;19;20006;-68
2023/03/14 12:58:30;;;;;;;7.07;2.20;;;;;;;;;;12823415;19;20496;-69
2023/03/14 13:03:26;;;;;;;18.10;5.72;;;;;;;;;;12821810;19;20318;-69
2023/03/14 13:08:09;;;;;;;31.45;8.23;;;;;;;;;;12821476;19;20011;-69
2023/03/14 13:19:40;;;;;;;8.52;2.40;;;;;;;;;;12722769;19;2004847;-68
2023/03/14 13:29:31;;;;;;;6.72;3.05;;;;;;;;;;12820317;19;20011;-70
2023/03/14 13:34:38;;;;;;;19.63;6.25;;;;;;;;;;12822635;19;20405;-68
2023/03/14 13:45:15;;;;;;;10.65;4.00;;;;;;;;;;12817030;19;20501;-68
2023/03/14 13:56:16;;;;;;;5.03;2.80;;;;;;;;;;12718389;19;2005126;-69
2023/03/14 14:01:35;;;;;;;10.82;4.40;;;;;;;;;;12817806;19;20473;-68
2023/03/14 14:13:39;;;;;;;10.52;4.55;;;;;;;;;;12710206;19;2005010;-69
2023/03/14 14:18:44;;;;;;;6.00;2.50;;;;;;;;;;12811504;19;20426;-69
2023/03/14 14:30:35;;;;;;;4.30;2.38;;;;;;;;;;12716671;19;2005419;-69
2023/03/14 14:35:45;;;;;;;5.13;2.35;;;;;;;;;;12817567;19;20472;-69
2023/03/14 14:46:40;;;;;;;15.90;4.53;;;;;;;;;;12809709;19;20029;-69
2023/03/14 14:51:30;;;;;;;5.90;3.10;;;;;;;;;;12810426;19;20685;-69
2023/03/14 14:56:40;;;;;;;8.60;4.75;;;;;;;;;;12812261;19;20730;-68
2023/03/14 15:01:43;;;;;;;7.95;3.55;;;;;;;;;;12809227;19;20417;-69
2023/03/14 15:06:35;;;;;;;7.22;2.72;;;;;;;;;;12809919;19;20318;-69
2023/03/14 15:11:26;;;;;;;10.10;3.70;;;;;;;;;;12812318;19;20449;-69
2023/03/14 15:23:19;;;;;;;13.30;6.60;;;;;;;;;;12715579;19;2005513;-69
2023/03/14 15:28:20;;;;;;;32.72;12.52;;;;;;;;;;12822896;19;20469;-68
2023/03/14 15:33:21;;;;;;;14.00;6.50;;;;;;;;;;12827559;19;20034;-69
2023/03/14 15:38:28;;;;;;;13.13;6.38;;;;;;;;;;12822234;19;20438;-69
2023/03/14 15:43:42;;;;;;;13.63;4.88;;;;;;;;;;12825128;19;20651;-68
2023/03/14 15:49:30;;;;;;;21.50;8.48;;;;;;;;;;12827957;19;20017;-69
2023/03/14 15:55:17;;;;;;;18.02;7.30;;;;;;;;;;12818719;19;20314;-68
2023/03/14 16:00:19;;;;;;;15.45;5.43;;;;;;;;;;12826707;19;20522;-69
2023/03/14 16:05:13;;;;;;;16.75;7.10;;;;;;;;;;12823889;19;20414;-69
2023/03/14 16:15:20;;;;;;;18.80;5.32;;;;;;;;;;12824156;19;20504;-68
2023/03/14 16:20:25;;;;;;;6.18;3.10;;;;;;;;;;12825759;19;20515;-68
2023/03/14 16:25:21;;;;;;;5.95;2.70;;;;;;;;;;12825917;19;20038;-68
2023/03/14 16:30:20;;;;;;;4.97;3.10;;;;;;;;;;12826451;19;20015;-69
2023/03/14 16:36:08;;;;;;;3.35;1.83;;;;;;;;;;12815343;19;20006;-69
2023/03/14 16:41:18;;;;;;;11.85;4.82;;;;;;;;;;12825925;19;20484;-68
2023/03/14 16:51:47;;;;;;;14.95;6.53;;;;;;;;;;12821374;19;20564;-68
2023/03/14 16:56:39;;;;;;;31.23;14.63;;;;;;;;;;12825351;19;20433;-68
2023/03/14 17:07:32;;;;;;;24.30;10.80;;;;;;;;;;12713320;19;2005183;-68
2023/03/14 17:12:13;;;;;;;36.65;15.20;;;;;;;;;;12817300;19;20984;-68
2023/03/14 17:27:34;;;;;;;37.03;13.02;;;;;;;;;;12822483;19;20086;-69
2023/03/14 17:38:20;;;;;;;44.53;17.65;;;;;;;;;;12712973;19;2005681;-69
2023/03/14 17:43:06;;;;;;;22.42;8.88;;;;;;;;;;12818430;19;20473;-68
2023/03/14 17:47:26;;;;;;;19.90;8.45;;;;;;;;;;12822176;19;20362;-69
2023/03/14 17:52:11;;;;;;;45.97;16.65;;;;;;;;;;12822784;19;20472;-67
2023/03/14 17:57:20;;;;;;;68.70;22.08;;;;;;;;;;12812603;19;20441;-68
2023/03/14 18:02:29;;;;;;;71.60;23.77;;;;;;;;;;12811967;19;20718;-68
2023/03/14 18:13:14;;;;;;;29.60;13.13;;;;;;;;;;12711348;19;2005127;-69
2023/03/14 18:18:13;;;;;;;22.50;11.15;;;;;;;;;;12815145;19;21064;-68
2023/03/14 18:22:45;;;;;;;14.85;6.50;;;;;;;;;;12813329;19;20924;-67
2023/03/14 18:32:47;;;;;;;21.48;10.40;;;;;;;;;;12810045;19;20374;-68
2023/03/14 18:38:20;;;;;;;15.35;9.13;;;;;;;;;;12810530;19;20438;-67
2023/03/14 18:48:45;;;;;;;58.17;23.55;;;;;;;;;;12816437;19;20470;-69
2023/03/14 18:53:35;;;;;;;105.63;43.85;;;;;;;;;;12819126;19;20342;-68
2023/03/14 19:04:15;;;;;;;56.60;23.83;;;;;;;;;;12721902;19;2004944;-68
2023/03/14 19:09:07;;;;;;;61.90;23.17;;;;;;;;;;12829852;19;20314;-68
2023/03/14 19:13:47;;;;;;;77.72;27.67;;;;;;;;;;12829550;19;20378;-68
2023/03/14 19:18:34;;;;;;;69.07;28.30;;;;;;;;;;12827561;19;20432;-68
2023/03/14 19:23:37;;;;;;;78.85;29.88;;;;;;;;;;12822798;19;20429;-68
2023/03/14 19:29:18;;;;;;;55.22;22.20;;;;;;;;;;12825452;19;20457;-68
2023/03/14 19:34:37;;;;;;;31.65;16.60;;;;;;;;;;12822000;19;20454;-69
2023/03/14 19:39:18;;;;;;;49.40;18.50;;;;;;;;;;12825343;19;20049;-68
2023/03/14 19:49:42;;;;;;;22.02;9.77;;;;;;;;;;12818836;19;20426;-69
2023/03/14 19:54:11;;;;;;;22.90;10.30;;;;;;;;;;12819311;19;20437;-71
2023/03/14 19:58:31;;;;;;;14.48;7.72;;;;;;;;;;12820938;19;21113;-69
2023/03/14 20:03:09;;;;;;;20.42;9.88;;;;;;;;;;12821068;19;20441;-67
2023/03/14 20:08:11;;;;;;;24.95;11.85;;;;;;;;;;12817872;19;20041;-67
2023/03/14 20:13:13;;;;;;;20.77;10.25;;;;;;;;;;12818586;19;20446;-68
2023/03/14 20:34:26;;;;;;;19.60;8.75;;;;;;;;;;12820786;19;20413;-68
2023/03/14 20:45:27;;;;;;;19.98;9.93;;;;;;;;;;12721763;19;2005062;-69
2023/03/14 20:50:29;;;;;;;31.30;10.70;;;;;;;;;;12821991;19;20517;-68
2023/03/14 21:02:12;;;;;;;12.38;5.78;;;;;;;;;;12815005;19;20307;-68
2023/03/14 21:07:06;;;;;;;17.85;8.15;;;;;;;;;;12816636;19;20014;-69
2023/03/14 21:11:37;;;;;;;15.18;6.60;;;;;;;;;;12822839;19;20300;-68
2023/03/14 21:16:31;;;;;;;15.30;7.53;;;;;;;;;;12823827;19;20501;-68
2023/03/14 21:21:48;;;;;;;22.77;9.63;;;;;;;;;;12822251;19;20304;-68
2023/03/14 21:27:06;;;;;;;16.35;8.13;;;;;;;;;;12822284;19;20401;-69
2023/03/14 21:32:24;;;;;;;13.52;5.93;;;;;;;;;;12823931;19;20530;-68
2023/03/14 21:38:18;;;;;;;15.88;8.00;;;;;;;;;;12814637;19;20537;-67
2023/03/14 21:42:53;;;;;;;19.65;7.82;;;;;;;;;;12813868;19;20957;-67
2023/03/14 21:47:24;;;;;;;29.60;12.27;;;;;;;;;;12814634;19;20021;-68
2023/03/14 21:58:20;;;;;;;14.77;5.20;;;;;;;;;;12812876;19;20341;-68
2023/03/14 22:03:07;;;;;;;11.65;5.10;;;;;;;;;;12812977;19;20441;-68
2023/03/14 22:13:43;;;;;;;10.98;4.88;;;;;;;;;;12820780;19;20763;-68
2023/03/14 22:18:37;;;;;;;11.40;5.03;;;;;;;;;;12820862;19;20022;-68
2023/03/14 22:30:16;;;;;;;8.43;4.45;;;;;;;;;;12707733;19;2006027;-67
2023/03/14 22:35:09;;;;;;;13.40;5.30;;;;;;;;;;12816777;19;20063;-69
2023/03/14 22:39:38;;;;;;;9.52;4.78;;;;;;;;;;12819869;19;20394;-68
2023/03/14 22:44:40;;;;;;;9.02;3.95;;;;;;;;;;12821299;19;20426;-68
2023/03/14 22:55:12;;;;;;;8.20;3.05;;;;;;;;;;12818773;19;20440;-68
2023/03/14 22:59:35;;;;;;;7.32;2.90;;;;;;;;;;12818831;19;20441;-69
2023/03/14 23:10:13;;;;;;;3.15;2.03;;;;;;;;;;12814849;19;20528;-68
2023/03/14 23:15:10;;;;;;;3.83;1.60;;;;;;;;;;12815634;19;20497;-69
2023/03/14 23:26:30;;;;;;;2.30;1.30;;;;;;;;;;12713269;19;2005959;-69
2023/03/14 23:31:24;;;;;;;2.28;1.30;;;;;;;;;;12812522;19;20441;-68
2023/03/14 23:36:21;;;;;;;3.63;1.10;;;;;;;;;;12818030;19;20308;-68
2023/03/14 23:41:17;;;;;;;3.83;1.73;;;;;;;;;;12817411;19;20429;-69
2023/03/14 23:46:17;;;;;;;2.75;1.55;;;;;;;;;;12820484;19;20548;-68
2023/03/14 23:51:10;;;;;;;1.63;1.17;;;;;;;;;;12824528;19;20102;-69
2023/03/14 23:56:18;;;;;;;1.65;1.00;;;;;;;;;;12829525;19;20470;-68
